首页
METAR-TAF:

METAR-TAF

机场 :

Limon Municipal Airport

利蒙, 科羅拉多州, 美国

纬度: 39-16-24N, 经度: 103-40-00W, 海拔: 1635米

当前天气观测

该预报发布于24分钟前的16:55 UTC
风速7节,风向
温度 23°C
湿度 50%
气压 1028 hPa
能見度: 16.1公里
多云层高于3900英尺
多云层高于4900英尺
阴天层高于6000英尺

METAR: KLIC 211655Z AUTO 09007KT 10SM BKN039 BKN049 OVC060 23/12 A3035 RMK AO2 SLP210 T02280122 $

时间: 11:19 (17:19 UTC)


TAF: 丢失

超过4000个机场的气象观测和天气预报(METAR&TAF报告)。

可查询的气象台以黄色和红色小点在地图上表示。

将鼠标移到小点上方,可查看气象台名称。

然后点击查看天气观测和预报。

如需切换地图:点击带黑十字的绿色按钮放大地图;点击带横线的绿色按钮缩小地图;或者点击绿色箭头查看邻近地区的地图。


METAR-TAF: